Time;durP1;ratioP1;P1;durP2;ratioP2;P2;SDS_P1;SDS_P2;PMS_P1;PMS_P2;Temp;Humidity;BMP_temperature;BMP_pressure;BME280_temperature;BME280_humidity;BME280_pressure;Samples;Min_cycle;Max_cycle;Signal;HPM_P1;HPM_P2
2023/06/04 00:00:26;;;;;;;9.00;5.80;;;;;;;18.70;100.00;100491.25;4897063;29;20025;-69
2023/06/04 00:02:51;;;;;;;11.43;5.82;;;;;;;18.63;100.00;100484.28;4880564;29;20036;-69
2023/06/04 00:05:17;;;;;;;8.55;4.95;;;;;;;19.14;100.00;100572.56;4895942;29;20025;-69
2023/06/04 00:07:43;;;;;;;8.63;5.40;;;;;;;19.07;100.00;100553.34;4897361;29;20120;-67
2023/06/04 00:10:09;;;;;;;11.00;5.53;;;;;;;19.12;100.00;100564.72;4895839;29;20092;-69
2023/06/04 00:12:35;;;;;;;9.98;5.50;;;;;;;19.13;100.00;100574.31;4896923;29;20052;-71
2023/06/04 00:15:00;;;;;;;10.07;5.05;;;;;;;19.11;100.00;100564.72;4896633;29;20029;-68
2023/06/04 00:17:26;;;;;;;13.75;5.95;;;;;;;19.07;100.00;100567.31;4897288;29;20047;-67
2023/06/04 00:19:51;;;;;;;9.77;5.88;;;;;;;19.01;100.00;100571.66;4896928;29;20024;-68
2023/06/04 00:22:17;;;;;;;16.45;6.53;;;;;;;19.00;100.00;100565.53;4896927;29;20041;-68
2023/06/04 00:24:42;;;;;;;8.70;5.88;;;;;;;18.70;100.00;100503.47;4896621;29;20107;-69
2023/06/04 00:27:08;;;;;;;9.13;6.20;;;;;;;19.04;100.00;100564.69;4896767;29;20103;-67
2023/06/04 00:29:34;;;;;;;11.65;6.25;;;;;;;19.04;100.00;100569.03;4878903;29;20088;-68
2023/06/04 00:32:00;;;;;;;11.40;6.07;;;;;;;19.06;100.00;100569.91;4896863;29;20466;-69
2023/06/04 00:34:25;;;;;;;11.05;5.90;;;;;;;19.03;100.00;100564.69;4896423;29;20737;-68
2023/06/04 00:36:51;;;;;;;11.82;5.93;;;;;;;19.02;100.00;100565.56;4894408;29;20045;-67
2023/06/04 00:39:16;;;;;;;9.68;5.70;;;;;;;19.00;100.00;100562.06;4896588;29;20033;-68
2023/06/04 00:41:42;;;;;;;8.05;5.70;;;;;;;18.91;100.00;100562.88;4896667;29;20044;-69
2023/06/04 00:44:07;;;;;;;12.15;6.35;;;;;;;18.42;100.00;100516.44;4896358;29;20044;-74
2023/06/04 00:46:35;;;;;;;14.20;6.22;;;;;;;18.67;100.00;100554.03;4896487;29;20029;-68
2023/06/04 00:49:01;;;;;;;12.38;5.82;;;;;;;18.40;100.00;100497.25;4847371;29;20097;-68
2023/06/04 00:51:30;;;;;;;10.30;5.82;;;;;;;18.79;100.00;100568.03;4896170;29;20056;-67
2023/06/04 00:53:55;;;;;;;12.05;6.32;;;;;;;18.78;100.00;100566.28;4896280;29;20415;-68
2023/06/04 00:56:21;;;;;;;7.53;6.03;;;;;;;18.68;100.00;100553.16;4896956;29;20037;-69
2023/06/04 00:58:47;;;;;;;10.02;6.07;;;;;;;18.48;100.00;100505.13;4915234;29;20471;-68
2023/06/04 01:01:26;;;;;;;11.48;6.32;;;;;;;18.52;100.00;100517.38;4914837;29;20081;-69
2023/06/04 01:03:54;;;;;;;11.60;5.70;;;;;;;18.90;100.00;100563.72;4914922;29;20032;-69
2023/06/04 01:06:43;;;;;;;10.90;5.10;;;;;;;18.91;100.00;100561.13;4914803;29;20483;-68
2023/06/04 01:09:10;;;;;;;12.23;6.25;;;;;;;18.94;100.00;100567.25;4914967;29;20399;-68
2023/06/04 01:11:37;;;;;;;12.13;6.03;;;;;;;18.89;100.00;100569.81;4915062;29;20055;-68
2023/06/04 01:14:05;;;;;;;16.55;5.43;;;;;;;18.86;100.00;100564.59;4914389;29;20402;-68
2023/06/04 01:16:38;;;;;;;10.35;5.53;;;;;;;18.84;100.00;100561.97;4914410;29;20487;-67
2023/06/04 01:19:10;;;;;;;12.68;5.38;;;;;;;18.69;100.00;100538.34;4914500;29;20038;-70
2023/06/04 01:21:38;;;;;;;12.75;5.82;;;;;;;18.83;100.00;100565.44;4914521;29;20581;-69
2023/06/04 01:24:06;;;;;;;13.90;5.30;;;;;;;18.79;100.00;100563.69;4914472;29;20028;-68
2023/06/04 01:26:32;;;;;;;18.67;6.15;;;;;;;18.73;100.00;100554.06;4914316;29;20517;-68
2023/06/04 01:28:59;;;;;;;14.80;5.38;;;;;;;18.58;100.00;100535.69;4925393;29;20036;-69
2023/06/04 01:31:25;;;;;;;13.70;5.35;;;;;;;18.30;100.00;100498.06;4933537;29;20399;-67
2023/06/04 01:33:54;;;;;;;10.40;5.72;;;;;;;18.69;100.00;100565.38;4933534;29;20027;-69
2023/06/04 01:36:20;;;;;;;16.02;6.05;;;;;;;18.66;100.00;100547.03;4933744;29;20039;-69
2023/06/04 01:38:45;;;;;;;15.35;5.80;;;;;;;18.77;100.00;100565.41;4933194;29;20040;-69
2023/06/04 01:41:11;;;;;;;15.25;5.72;;;;;;;18.82;100.00;100563.69;4933238;29;20087;-68
2023/06/04 01:43:36;;;;;;;13.38;6.38;;;;;;;18.75;100.00;100567.13;4933584;29;20506;-68
2023/06/04 01:46:03;;;;;;;14.07;6.03;;;;;;;18.71;100.00;100571.47;4933344;29;20043;-70
2023/06/04 01:48:28;;;;;;;15.95;6.38;;;;;;;18.64;100.00;100571.44;4933913;29;20036;-68
2023/06/04 01:50:54;;;;;;;18.55;6.20;;;;;;;18.48;100.00;100555.69;4933334;29;20402;-69
2023/06/04 01:53:20;;;;;;;13.77;6.82;;;;;;;18.56;100.00;100569.66;4933332;29;20368;-73
2023/06/04 01:55:45;;;;;;;28.05;6.43;;;;;;;18.28;100.00;100524.22;4933295;29;20079;-67
2023/06/04 01:58:11;;;;;;;15.90;6.30;;;;;;;18.44;100.00;100551.28;4933121;29;20060;-68
2023/06/04 02:00:36;;;;;;;13.98;6.47;;;;;;;18.54;100.00;100576.63;4933333;29;20112;-68
2023/06/04 02:03:02;;;;;;;14.13;5.65;;;;;;;18.56;100.00;100574.03;4933360;29;20069;-69
2023/06/04 02:05:27;;;;;;;16.65;6.68;;;;;;;18.55;100.00;100587.97;4933004;29;20024;-70
2023/06/04 02:07:53;;;;;;;20.67;6.68;;;;;;;18.52;100.00;100590.56;4933012;29;20032;-75
2023/06/04 02:10:19;;;;;;;15.30;6.40;;;;;;;18.55;100.00;100601.03;4932741;29;20039;-68
2023/06/04 02:12:59;;;;;;;10.98;5.80;;;;;;;18.19;100.00;100527.59;4933042;29;20039;-69
2023/06/04 02:15:26;;;;;;;17.05;6.82;;;;;;;18.57;100.00;100608.00;4933157;29;20075;-71
2023/06/04 02:17:58;;;;;;;19.10;6.35;;;;;;;18.49;100.00;100591.41;4933204;29;20027;-68
2023/06/04 02:20:27;;;;;;;21.77;7.50;;;;;;;18.57;100.00;100615.84;4932858;29;20406;-69
2023/06/04 02:22:54;;;;;;;17.08;6.30;;;;;;;18.48;100.00;100587.06;4932869;29;20414;-74
2023/06/04 02:25:20;;;;;;;16.00;6.70;;;;;;;18.59;100.00;100602.78;4932784;29;20039;-69
2023/06/04 02:27:45;;;;;;;15.65;6.10;;;;;;;18.61;100.00;100608.91;4932859;29;20087;-69
2023/06/04 02:30:11;;;;;;;14.20;6.78;;;;;;;18.58;100.00;100601.06;4927492;29;20119;-71
2023/06/04 02:32:36;;;;;;;15.30;6.80;;;;;;;18.71;100.00;100618.56;4917646;29;20067;-74
2023/06/04 02:35:03;;;;;;;13.18;6.45;;;;;;;18.75;100.00;100624.69;4917751;29;20036;-69
2023/06/04 02:37:30;;;;;;;13.73;7.22;;;;;;;18.76;100.00;100622.06;4899594;29;20075;-69
2023/06/04 02:39:55;;;;;;;16.20;6.40;;;;;;;18.74;100.00;100623.81;4917545;29;20035;-69
2023/06/04 02:42:21;;;;;;;18.42;6.53;;;;;;;18.75;100.00;100624.69;4917514;29;20435;-69
2023/06/04 02:44:46;;;;;;;16.70;7.10;;;;;;;18.67;100.00;100614.19;4917375;29;20036;-69
2023/06/04 02:47:11;;;;;;;17.65;7.57;;;;;;;18.79;100.00;100630.81;4917464;29;20036;-69
2023/06/04 02:49:37;;;;;;;16.50;6.72;;;;;;;18.35;100.00;100551.25;4917137;29;20036;-69
2023/06/04 02:52:03;;;;;;;16.38;6.82;;;;;;;18.80;100.00;100636.03;4916982;29;20551;-69
2023/06/04 02:54:28;;;;;;;17.15;7.03;;;;;;;18.74;100.00;100625.53;4917193;29;20398;-71
2023/06/04 02:56:53;;;;;;;13.70;7.20;;;;;;;18.81;100.00;100635.16;4917154;29;20159;-69
2023/06/04 02:59:19;;;;;;;15.00;7.32;;;;;;;18.59;100.00;100592.31;4917061;29;20499;-69
2023/06/04 03:01:44;;;;;;;22.80;8.23;;;;;;;18.82;100.00;100636.94;4917036;29;20422;-72
2023/06/04 03:04:14;;;;;;;14.77;8.45;;;;;;;18.84;100.00;100634.31;4916965;29;20096;-68
2023/06/04 03:06:40;;;;;;;;;;;;;;;18.88;100.00;100636.97;4917582;29;20134;-69
2023/06/04 03:09:06;;;;;;;20.60;9.55;;;;;;;18.93;100.00;100644.88;4900385;29;20290;-70
2023/06/04 03:11:32;;;;;;;17.10;9.18;;;;;;;18.99;100.00;100652.75;4916931;29;20498;-75
2023/06/04 03:13:57;;;;;;;17.92;7.18;;;;;;;19.04;100.00;100652.75;4915423;29;20024;-69
2023/06/04 03:16:23;;;;;;;16.95;7.63;;;;;;;18.99;100.00;100646.63;4867872;29;20419;-69
2023/06/04 03:18:48;;;;;;;18.70;7.55;;;;;;;18.95;100.00;100650.13;4916495;29;20036;-68
2023/06/04 03:21:14;;;;;;;18.10;8.77;;;;;;;18.98;100.00;100657.97;4916732;29;20036;-69
2023/06/04 03:23:40;;;;;;;21.67;8.05;;;;;;;18.88;100.00;100647.44;4916993;29;20411;-69
2023/06/04 03:26:06;;;;;;;19.23;7.63;;;;;;;18.94;100.00;100650.97;4916908;29;20036;-71
2023/06/04 03:28:32;;;;;;;16.35;8.02;;;;;;;18.92;100.00;100656.22;4916834;29;20036;-69
2023/06/04 03:30:58;;;;;;;15.27;7.88;;;;;;;18.95;100.00;100645.75;4867496;29;20391;-69
2023/06/04 03:33:24;;;;;;;15.60;7.95;;;;;;;18.62;100.00;100600.22;4916545;29;20039;-70
2023/06/04 03:35:53;;;;;;;17.85;7.90;;;;;;;18.84;100.00;100634.31;4916305;29;20040;-69
2023/06/04 03:38:19;;;;;;;19.00;8.48;;;;;;;18.85;100.00;100639.53;4916480;29;20145;-71
2023/06/04 03:40:45;;;;;;;21.42;8.43;;;;;;;18.92;100.00;100657.06;4916442;29;20032;-71
2023/06/04 03:43:11;;;;;;;21.95;8.38;;;;;;;18.90;100.00;100664.06;4916312;29;20024;-68
2023/06/04 03:45:36;;;;;;;17.55;8.20;;;;;;;18.86;100.00;100666.59;4916233;29;20855;-69
2023/06/04 03:48:02;;;;;;;19.38;8.63;;;;;;;18.78;100.00;100669.19;4916117;29;20032;-68
2023/06/04 03:50:27;;;;;;;19.15;8.15;;;;;;;18.78;100.00;100671.78;4916362;29;20502;-72
2023/06/04 03:52:53;;;;;;;13.38;7.82;;;;;;;18.71;100.00;100670.00;4916327;29;20032;-72
2023/06/04 03:55:18;;;;;;;18.27;7.47;;;;;;;18.62;100.00;100668.19;4916264;29;20031;-68
2023/06/04 03:57:44;;;;;;;22.70;8.20;;;;;;;18.37;100.00;100674.97;4916045;29;20048;-70
2023/06/04 04:00:12;;;;;;;16.55;8.18;;;;;;;18.00;100.00;100619.78;4916155;29;20028;-69
2023/06/04 04:02:41;;;;;;;16.60;7.95;;;;;;;18.32;100.00;100663.59;4915944;29;20032;-68
2023/06/04 04:05:06;;;;;;;14.20;7.88;;;;;;;18.52;100.00;100687.31;4916155;29;20032;-71
2023/06/04 04:07:32;;;;;;;16.70;8.00;;;;;;;18.55;100.00;100674.22;4916121;29;20036;-69
2023/06/04 04:09:57;;;;;;;13.48;6.82;;;;;;;18.52;100.00;100684.69;4915951;29;20474;-71
2023/06/04 04:12:23;;;;;;;11.90;6.78;;;;;;;18.53;100.00;100687.31;4897998;29;20040;-70
2023/06/04 04:14:48;;;;;;;11.75;6.93;;;;;;;18.54;100.00;100693.41;4915905;29;20087;-68
2023/06/04 04:17:14;;;;;;;9.73;6.80;;;;;;;18.57;100.00;100699.53;4915504;29;20032;-68
2023/06/04 04:19:40;;;;;;;10.88;6.57;;;;;;;18.50;100.00;100702.94;4915745;29;20042;-73
2023/06/04 04:22:06;;;;;;;10.68;6.53;;;;;;;18.53;100.00;100697.75;4915424;29;20418;-72
2023/06/04 04:24:34;;;;;;;8.73;5.82;;;;;;;18.53;100.00;100700.38;4915602;29;20024;-70
2023/06/04 04:26:59;;;;;;;10.32;6.25;;;;;;;18.51;100.00;100699.47;4915772;29;20403;-69
2023/06/04 04:29:27;;;;;;;18.70;5.90;;;;;;;18.50;100.00;100687.25;4915493;29;20028;-68
2023/06/04 04:31:56;;;;;;;16.90;6.63;;;;;;;18.64;100.00;100704.81;4915312;29;20077;-68
2023/06/04 04:34:26;;;;;;;14.02;6.15;;;;;;;18.67;100.00;100704.84;4915703;29;20059;-69
2023/06/04 04:36:52;;;;;;;10.30;6.47;;;;;;;18.64;100.00;100699.56;4915365;29;20114;-68
2023/06/04 04:39:24;;;;;;;8.68;6.05;;;;;;;18.04;100.00;100590.22;4915414;29;20118;-68
2023/06/04 04:41:49;;;;;;;9.15;6.10;;;;;;;18.79;100.00;100704.94;4915114;29;20471;-73
2023/06/04 04:44:15;;;;;;;13.43;6.63;;;;;;;18.88;100.00;100709.34;4915001;29;20168;-74
2023/06/04 04:46:40;;;;;;;13.00;7.10;;;;;;;18.53;100.00;100653.31;4915287;29;20423;-71
2023/06/04 04:49:06;;;;;;;10.32;6.60;;;;;;;18.86;100.00;100711.94;4915215;29;20435;-71
2023/06/04 04:51:31;;;;;;;15.30;6.75;;;;;;;18.88;100.00;100717.19;4914670;29;20504;-69
2023/06/04 04:54:00;;;;;;;11.38;6.28;;;;;;;18.92;100.00;100716.38;4913163;29;20202;-69
2023/06/04 04:56:26;;;;;;;13.43;6.93;;;;;;;18.96;100.00;100719.88;4915009;29;20032;-69
2023/06/04 04:58:51;;;;;;;11.45;6.65;;;;;;;18.97;100.00;100725.13;4914652;29;20040;-68
2023/06/04 05:01:17;;;;;;;10.95;7.43;;;;;;;18.82;100.00;100709.31;4915071;29;20115;-69
2023/06/04 05:03:42;;;;;;;12.63;6.93;;;;;;;18.86;100.00;100726.75;4915059;29;20024;-69
2023/06/04 05:06:08;;;;;;;11.05;7.00;;;;;;;18.90;100.00;100731.16;4865957;29;20047;-69
2023/06/04 05:08:33;;;;;;;11.50;6.63;;;;;;;18.95;100.00;100739.06;4915150;29;20035;-68
2023/06/04 05:10:59;;;;;;;13.45;7.07;;;;;;;18.99;100.00;100730.34;4915145;29;20028;-72
2023/06/04 05:13:24;;;;;;;11.30;8.35;;;;;;;19.04;100.00;100729.53;4914507;29;20028;-69
2023/06/04 05:15:52;;;;;;;14.18;8.15;;;;;;;18.76;100.00;100679.59;4897933;29;20157;-71
2023/06/04 05:18:20;;;;;;;13.23;7.57;;;;;;;19.13;100.00;100733.06;4915127;29;20086;-69
2023/06/04 05:20:46;;;;;;;15.07;8.23;;;;;;;18.45;100.00;100630.59;4881979;29;20044;-67
2023/06/04 05:23:14;;;;;;;15.82;7.88;;;;;;;19.11;100.00;100742.66;4914531;29;20032;-69
2023/06/04 05:25:40;;;;;;;12.30;7.50;;;;;;;18.81;100.00;100707.56;4914774;29;20403;-69
2023/06/04 05:28:06;;;;;;;14.15;7.85;;;;;;;19.01;100.00;100758.28;4914237;29;20032;-70
2023/06/04 05:30:33;;;;;;;16.40;8.23;;;;;;;19.05;100.00;100759.19;4914644;29;20036;-68
2023/06/04 05:32:59;;;;;;;14.88;8.32;;;;;;;19.08;100.00;100756.59;4914566;29;20044;-68
2023/06/04 05:35:24;;;;;;;8.70;6.88;;;;;;;19.09;100.00;100758.34;4914473;29;20570;-69
2023/06/04 05:37:53;;;;;;;14.43;8.45;;;;;;;19.12;100.00;100753.13;4914696;29;20070;-68
2023/06/04 05:40:20;;;;;;;15.45;9.40;;;;;;;18.78;100.00;100703.19;4914398;29;20562;-69
2023/06/04 05:42:46;;;;;;;13.30;9.10;;;;;;;19.16;100.00;100760.13;4914259;29;20123;-69
2023/06/04 05:45:12;;;;;;;17.25;10.23;;;;;;;18.95;100.00;100766.09;4914668;29;20116;-73
2023/06/04 05:47:37;;;;;;;18.58;10.50;;;;;;;18.94;100.00;100773.94;4914449;29;20503;-69
2023/06/04 05:50:03;;;;;;;19.50;10.40;;;;;;;18.76;100.00;100768.53;4914280;29;20102;-71
2023/06/04 05:52:29;;;;;;;21.13;10.32;;;;;;;18.67;100.00;100785.91;4914192;29;20063;-68
2023/06/04 05:54:54;;;;;;;17.95;9.75;;;;;;;18.23;100.00;100735.84;4914141;29;20509;-70
2023/06/04 05:57:20;;;;;;;13.70;9.88;;;;;;;18.27;100.00;100773.34;4912606;29;20071;-70
2023/06/04 05:59:46;;;;;;;17.58;10.38;;;;;;;17.75;100.00;100710.91;4880840;29;20050;-68
2023/06/04 06:02:12;;;;;;;18.67;10.65;;;;;;;18.35;100.00;100781.25;4914335;29;20123;-69
2023/06/04 06:04:37;;;;;;;20.70;11.77;;;;;;;18.24;100.00;100784.63;4917090;29;20032;-68
2023/06/04 06:07:03;;;;;;;16.30;10.93;;;;;;;18.00;100.00;100777.38;4918239;29;20039;-69
2023/06/04 06:09:28;;;;;;;17.70;11.57;;;;;;;17.94;100.00;100790.38;4918229;29;20505;-69
2023/06/04 06:11:54;;;;;;;23.38;12.05;;;;;;;18.06;100.00;100792.28;4917654;29;20491;-68
2023/06/04 06:14:20;;;;;;;17.00;10.88;;;;;;;17.63;100.00;100696.88;4918001;29;20403;-69
2023/06/04 06:16:46;;;;;;;18.27;11.48;;;;;;;18.25;100.00;100796.81;4917988;29;20464;-69
2023/06/04 06:19:12;;;;;;;20.52;10.68;;;;;;;18.32;100.00;100807.34;4918100;29;20115;-68
2023/06/04 06:21:37;;;;;;;19.35;11.15;;;;;;;18.31;100.00;100795.16;4917801;29;20258;-69
2023/06/04 06:24:03;;;;;;;15.73;10.63;;;;;;;18.55;100.00;100812.81;4901020;29;20090;-71
2023/06/04 06:26:29;;;;;;;21.25;11.40;;;;;;;18.45;100.00;100806.59;4917450;29;20119;-69
2023/06/04 06:28:55;;;;;;;14.93;10.38;;;;;;;18.53;100.00;100809.28;4917702;29;20083;-69
2023/06/04 06:31:21;;;;;;;19.75;11.40;;;;;;;18.65;100.00;100819.00;4899813;29;20040;-68
2023/06/04 06:33:46;;;;;;;13.35;10.45;;;;;;;18.54;100.00;100806.72;4917704;29;20032;-68
2023/06/04 06:36:12;;;;;;;13.77;10.93;;;;;;;18.57;100.00;100795.41;4917837;29;20075;-68
2023/06/04 06:38:38;;;;;;;14.93;10.90;;;;;;;18.61;100.00;100798.94;4917641;29;20451;-69
2023/06/04 06:41:05;;;;;;;13.68;10.20;;;;;;;18.76;100.00;100826.06;4917463;29;20098;-68
2023/06/04 06:43:31;;;;;;;18.73;10.48;;;;;;;18.81;100.00;100823.50;4917614;29;20083;-68
2023/06/04 06:45:57;;;;;;;19.55;11.07;;;;;;;18.92;100.00;100827.13;4917493;29;20032;-68
2023/06/04 06:48:22;;;;;;;17.45;10.65;;;;;;;18.87;100.00;100805.25;4917492;29;20483;-68
2023/06/04 06:50:48;;;;;;;19.80;10.70;;;;;;;19.13;100.00;100838.63;4917228;29;20040;-68
2023/06/04 06:53:13;;;;;;;13.18;10.25;;;;;;;19.12;100.00;100818.56;4917217;29;20483;-69
2023/06/04 06:55:38;;;;;;;14.95;10.35;;;;;;;18.93;100.00;100783.53;4917084;29;20035;-68
2023/06/04 06:58:04;;;;;;;13.77;10.18;;;;;;;18.85;100.00;100767.72;4917162;29;20048;-71
2023/06/04 07:00:29;;;;;;;14.88;10.52;;;;;;;19.18;100.00;100833.44;4917244;29;20032;-68
2023/06/04 07:02:56;;;;;;;16.20;10.27;;;;;;;19.38;100.00;100839.66;4917155;29;20060;-69
2023/06/04 07:05:21;;;;;;;14.25;8.90;;;;;;;19.47;100.00;100844.09;4917080;29;20043;-69
2023/06/04 07:07:47;;;;;;;11.98;9.60;;;;;;;19.56;100.00;100843.28;4916849;29;20040;-68
2023/06/04 07:10:14;;;;;;;13.70;9.30;;;;;;;19.64;100.00;100859.91;4917115;29;20043;-71
2023/06/04 07:12:39;;;;;;;12.57;8.82;;;;;;;19.69;100.00;100847.72;4916700;29;20439;-69
2023/06/04 07:15:06;;;;;;;13.57;9.52;;;;;;;19.33;100.00;100788.16;4916571;29;20040;-67
2023/06/04 07:17:32;;;;;;;13.50;9.15;;;;;;;19.69;100.00;100852.97;4916833;29;20020;-69
2023/06/04 07:19:57;;;;;;;12.00;9.35;;;;;;;19.64;100.00;100838.06;4916937;29;20095;-69
2023/06/04 07:22:23;;;;;;;11.55;7.97;;;;;;;19.73;100.00;100859.09;4916595;29;20403;-68
2023/06/04 07:24:48;;;;;;;12.07;8.48;;;;;;;19.68;100.00;100863.44;4916709;29;20036;-69
2023/06/04 07:27:15;;;;;;;12.68;7.95;;;;;;;19.55;100.00;100865.09;4916574;29;20036;-68
2023/06/04 07:29:43;;;;;;;10.38;8.30;;;;;;;19.49;100.00;100868.56;4916807;29;20043;-75
2023/06/04 07:32:08;;;;;;;11.30;8.27;;;;;;;19.38;100.00;100867.59;4916491;29;20491;-67
2023/06/04 07:34:34;;;;;;;11.48;7.82;;;;;;;19.25;100.00;100850.91;4899326;29;20032;-73
2023/06/04 07:37:00;;;;;;;13.07;8.35;;;;;;;19.27;100.00;100864.03;4916621;29;20025;-68
2023/06/04 07:39:25;;;;;;;11.75;8.73;;;;;;;19.16;100.00;100872.66;4916311;29;20523;-68
2023/06/04 07:41:51;;;;;;;14.98;9.07;;;;;;;19.14;100.00;100878.75;4882833;29;20130;-68
2023/06/04 07:44:16;;;;;;;12.15;9.65;;;;;;;19.06;100.00;100882.19;4899403;29;20060;-67
2023/06/04 07:46:42;;;;;;;14.90;9.77;;;;;;;18.91;100.00;100853.28;4916323;29;20512;-68
2023/06/04 07:49:08;;;;;;;12.98;10.13;;;;;;;18.70;100.00;100831.25;4916601;29;20036;-71
2023/06/04 07:51:34;;;;;;;12.05;10.23;;;;;;;18.72;100.00;100833.91;4916144;29;20461;-71
2023/06/04 07:54:00;;;;;;;12.05;10.40;;;;;;;18.87;100.00;100854.09;4915797;29;20123;-75
2023/06/04 07:56:26;;;;;;;12.07;10.10;;;;;;;18.88;100.00;100876.78;4916090;29;20029;-68
2023/06/04 07:58:52;;;;;;;14.10;10.13;;;;;;;18.96;100.00;100889.94;4915919;29;20024;-68
2023/06/04 08:01:17;;;;;;;12.02;9.75;;;;;;;18.94;100.00;100896.91;4915985;29;20463;-68
2023/06/04 08:03:43;;;;;;;12.63;9.63;;;;;;;18.91;100.00;100889.91;4915965;29;20040;-67
2023/06/04 08:06:09;;;;;;;13.52;9.43;;;;;;;18.98;100.00;100901.28;4915899;29;20036;-66
2023/06/04 08:08:36;;;;;;;11.52;9.25;;;;;;;18.87;100.00;100888.09;4915633;29;20036;-70
2023/06/04 08:11:02;;;;;;;12.00;9.02;;;;;;;18.96;100.00;100895.19;4916101;29;20111;-69
2023/06/04 08:13:28;;;;;;;14.75;10.10;;;;;;;18.97;100.00;100899.56;4915807;29;20111;-67
2023/06/04 08:15:53;;;;;;;10.93;9.23;;;;;;;19.02;100.00;100895.25;4915686;29;20066;-69
2023/06/04 08:18:19;;;;;;;10.77;9.23;;;;;;;18.92;100.00;100876.81;4915648;29;20039;-66
2023/06/04 08:20:44;;;;;;;10.38;9.32;;;;;;;19.09;100.00;100897.06;4915849;29;20035;-69
2023/06/04 08:23:10;;;;;;;12.23;9.35;;;;;;;19.12;100.00;100901.44;4882021;29;20048;-68
2023/06/04 08:25:35;;;;;;;17.08;10.10;;;;;;;19.19;100.00;100904.13;4915383;29;20035;-68
2023/06/04 08:28:01;;;;;;;10.25;9.05;;;;;;;19.23;100.00;100897.16;4915407;29;20033;-69
2023/06/04 08:30:27;;;;;;;11.98;9.95;;;;;;;19.12;100.00;100897.06;4915550;29;20111;-69
2023/06/04 08:32:53;;;;;;;15.52;9.38;;;;;;;19.22;100.00;100900.63;4915589;29;20475;-69
2023/06/04 08:35:18;;;;;;;13.15;9.13;;;;;;;19.28;100.00;100900.69;4915393;29;20032;-69
2023/06/04 08:37:44;;;;;;;16.85;9.88;;;;;;;19.22;100.00;100892.78;4915123;29;20111;-69
2023/06/04 08:40:10;;;;;;;12.43;9.45;;;;;;;18.86;100.00;100842.72;4915470;29;20028;-70
2023/06/04 08:42:44;;;;;;;11.38;9.43;;;;;;;19.20;100.00;100899.75;4881806;29;20044;-69
2023/06/04 08:45:20;;;;;;;16.20;10.82;;;;;;;19.28;100.00;100905.94;4915120;29;20410;-68
2023/06/04 08:47:50;;;;;;;13.45;10.30;;;;;;;19.17;100.00;100907.59;4914979;29;20050;-68
2023/06/04 08:50:21;;;;;;;15.93;10.40;;;;;;;19.22;100.00;100903.25;4914835;29;20039;-69
2023/06/04 08:52:48;;;;;;;11.77;9.85;;;;;;;19.33;100.00;100912.06;4915007;29;20031;-68
2023/06/04 08:55:14;;;;;;;12.65;9.15;;;;;;;19.20;100.00;100873.56;4915084;29;20036;-68
2023/06/04 08:57:40;;;;;;;16.05;9.98;;;;;;;19.41;100.00;100912.13;4914682;29;20052;-68
2023/06/04 09:00:08;;;;;;;12.50;9.70;;;;;;;19.38;100.00;100912.97;4914949;29;20027;-72
2023/06/04 09:02:39;;;;;;;10.98;9.60;;;;;;;19.31;100.00;100911.16;4915034;29;20135;-69
2023/06/04 09:05:10;;;;;;;14.32;10.10;;;;;;;19.36;100.00;100925.16;4914990;29;20032;-72
2023/06/04 09:07:38;;;;;;;13.20;10.55;;;;;;;19.36;100.00;100916.44;4914744;29;20591;-68
2023/06/04 09:10:06;;;;;;;15.95;10.15;;;;;;;19.15;100.00;100881.41;4914877;29;20083;-71
2023/06/04 09:12:35;;;;;;;11.18;9.90;;;;;;;19.37;100.00;100910.34;4914926;29;20028;-68
2023/06/04 09:15:01;;;;;;;11.30;9.23;;;;;;;19.44;100.00;100901.69;4914728;29;20071;-68
2023/06/04 09:17:28;;;;;;;16.20;10.00;;;;;;;19.51;100.00;100911.31;4915068;29;20060;-68
2023/06/04 09:19:53;;;;;;;12.35;9.82;;;;;;;19.47;100.00;100906.06;4914924;29;20148;-68
2023/06/04 09:22:19;;;;;;;17.20;9.65;;;;;;;19.57;100.00;100900.03;4914840;29;20506;-69
2023/06/04 09:24:52;;;;;;;13.85;9.43;;;;;;;19.58;100.00;100907.03;4914713;29;20032;-68
2023/06/04 09:27:21;;;;;;;12.45;9.57;;;;;;;19.70;100.00;100909.72;4915082;29;20028;-67
2023/06/04 09:29:52;;;;;;;12.50;9.80;;;;;;;19.76;100.00;100908.88;4914195;29;20526;-69
2023/06/04 09:32:24;;;;;;;10.75;9.43;;;;;;;19.84;100.00;100908.97;4914750;29;20028;-68
2023/06/04 09:34:50;;;;;;;12.55;9.05;;;;;;;19.93;100.00;100898.53;4914452;29;20458;-69
2023/06/04 09:37:21;;;;;;;11.18;8.50;;;;;;;20.10;100.00;100908.22;4914391;29;20063;-72
2023/06/04 09:39:56;;;;;;;15.50;9.32;;;;;;;20.20;100.00;100881.19;4914413;29;20115;-69
2023/06/04 09:42:22;;;;;;;12.05;8.38;;;;;;;20.01;100.00;100833.94;4914070;29;20414;-70
2023/06/04 09:44:48;;;;;;;14.70;8.75;;;;;;;20.49;100.00;100904.88;4914723;29;20550;-69
2023/06/04 09:47:14;;;;;;;11.48;9.18;;;;;;;20.57;100.00;100888.28;4914404;29;20038;-68
2023/06/04 09:49:42;;;;;;;13.93;8.82;;;;;;;20.69;100.00;100909.28;4914164;29;20027;-68
2023/06/04 09:52:08;;;;;;;17.07;8.67;;;;;;;20.69;100.00;100901.44;4914299;29;20058;-72
2023/06/04 09:54:36;;;;;;;14.55;9.32;;;;;;;21.03;100.00;100898.00;4914321;29;20446;-70
2023/06/04 09:57:04;;;;;;;11.13;8.00;;;;;;;21.31;100.00;100912.03;4897006;29;20051;-70
2023/06/04 09:59:37;;;;;;;13.15;7.70;;;;;;;21.29;100.00;100887.50;4913460;29;20056;-72
2023/06/04 10:02:04;;;;;;;16.20;7.55;;;;;;;21.40;100.00;100911.13;4913663;29;20040;-68
2023/06/04 10:04:31;;;;;;;10.10;7.28;;;;;;;21.62;100.00;100918.16;4913392;29;20028;-68
2023/06/04 10:06:57;;;;;;;8.90;7.10;;;;;;;21.35;100.00;100866.47;4913350;29;20403;-68
2023/06/04 10:09:25;;;;;;;12.05;7.57;;;;;;;21.51;100.00;100909.38;4913312;29;20494;-68
2023/06/04 10:11:56;;;;;;;13.27;7.28;;;;;;;21.40;100.00;100904.13;4913503;29;20055;-67
2023/06/04 10:14:23;;;;;;;10.35;7.07;;;;;;;21.30;100.00;100908.50;4913650;29;20051;-68
2023/06/04 10:16:51;;;;;;;10.95;7.55;;;;;;;20.88;100.00;100847.25;4913329;29;20034;-69
2023/06/04 10:19:18;;;;;;;10.90;8.27;;;;;;;21.24;100.00;100899.75;4914321;29;20051;-68
2023/06/04 10:21:43;;;;;;;11.73;8.00;;;;;;;21.57;100.00;100893.63;4913184;29;20024;-67
2023/06/04 10:24:09;;;;;;;11.68;7.43;;;;;;;21.85;100.00;100884.81;4913053;29;20488;-68
2023/06/04 10:26:36;;;;;;;11.73;6.80;;;;;;;21.99;100.00;100901.41;4912262;29;20095;-67
2023/06/04 10:29:02;;;;;;;8.27;6.68;;;;;;;22.12;100.00;100883.84;4921890;29;20465;-68
2023/06/04 10:31:29;;;;;;;13.18;6.97;;;;;;;22.18;100.00;100891.72;4914006;29;20032;-70
2023/06/04 10:33:55;;;;;;;11.85;6.85;;;;;;;22.36;100.00;100888.09;4913086;29;20088;-67
2023/06/04 10:36:22;;;;;;;12.15;6.90;;;;;;;22.26;100.00;100889.91;4912852;29;20028;-73
2023/06/04 10:38:53;;;;;;;14.75;7.50;;;;;;;22.06;100.00;100886.50;4913152;29;20082;-68
2023/06/04 10:41:22;;;;;;;10.85;6.60;;;;;;;22.02;100.00;100897.88;4912861;29;20056;-67
2023/06/04 10:43:49;;;;;;;10.73;6.50;;;;;;;21.70;100.00;100830.56;4913146;29;20095;-69
2023/06/04 10:46:16;;;;;;;7.97;6.35;;;;;;;22.05;100.00;100882.13;4912761;29;20434;-68
2023/06/04 10:48:53;;;;;;;12.32;7.00;;;;;;;22.10;100.00;100893.47;4896024;29;20028;-69
2023/06/04 10:51:32;;;;;;;9.95;6.50;;;;;;;21.92;100.00;100874.25;4915952;29;20036;-72
2023/06/04 10:53:59;;;;;;;11.43;6.47;;;;;;;21.56;100.00;100818.31;4915825;29;20056;-69
2023/06/04 10:56:28;;;;;;;10.00;6.80;;;;;;;21.89;100.00;100874.25;4877164;29;1141895;-69
2023/06/04 10:58:54;;;;;;;12.93;6.80;;;;;;;21.77;100.00;100864.69;4917394;29;20059;-69
2023/06/04 11:01:28;;;;;;;9.40;6.90;;;;;;;21.75;100.00;100874.31;4917026;29;20044;-67
2023/06/04 11:03:53;;;;;;;11.32;7.45;;;;;;;21.65;100.00;100867.34;4917142;29;20040;-69
2023/06/04 11:06:20;;;;;;;10.40;6.90;;;;;;;21.53;100.00;100865.56;4917103;29;20479;-68